sensor_id;sensor_type;location;lat;lon;timestamp;P1;durP1;ratioP1;P2;durP2;ratioP2
34317;SDS011;20582;52.196;20.952;2023-08-30T00:00:38;141.70;;;61.08;;
34317;SDS011;20582;52.196;20.952;2023-08-30T00:03:04;134.80;;;60.58;;
34317;SDS011;20582;52.196;20.952;2023-08-30T00:05:31;124.00;;;58.35;;
34317;SDS011;20582;52.196;20.952;2023-08-30T00:07:57;122.63;;;59.63;;
34317;SDS011;20582;52.196;20.952;2023-08-30T00:10:23;156.05;;;63.60;;
34317;SDS011;20582;52.196;20.952;2023-08-30T00:12:49;136.73;;;60.42;;
34317;SDS011;20582;52.196;20.952;2023-08-30T00:15:15;136.68;;;61.47;;
34317;SDS011;20582;52.196;20.952;2023-08-30T00:17:41;130.23;;;59.53;;
34317;SDS011;20582;52.196;20.952;2023-08-30T00:20:07;127.20;;;60.20;;
34317;SDS011;20582;52.196;20.952;2023-08-30T00:22:34;135.38;;;60.95;;
34317;SDS011;20582;52.196;20.952;2023-08-30T00:25:00;121.45;;;58.42;;
34317;SDS011;20582;52.196;20.952;2023-08-30T00:27:26;144.00;;;59.15;;
34317;SDS011;20582;52.196;20.952;2023-08-30T00:29:52;182.25;;;64.80;;
34317;SDS011;20582;52.196;20.952;2023-08-30T00:32:18;150.55;;;61.50;;
34317;SDS011;20582;52.196;20.952;2023-08-30T00:34:44;138.05;;;61.47;;
34317;SDS011;20582;52.196;20.952;2023-08-30T00:37:10;143.07;;;62.03;;
34317;SDS011;20582;52.196;20.952;2023-08-30T00:39:39;142.07;;;60.15;;
34317;SDS011;20582;52.196;20.952;2023-08-30T00:42:05;142.43;;;60.58;;
34317;SDS011;20582;52.196;20.952;2023-08-30T00:44:32;179.60;;;63.72;;
34317;SDS011;20582;52.196;20.952;2023-08-30T00:46:59;156.90;;;62.55;;
34317;SDS011;20582;52.196;20.952;2023-08-30T00:49:26;139.27;;;62.50;;
34317;SDS011;20582;52.196;20.952;2023-08-30T00:51:51;122.15;;;61.97;;
34317;SDS011;20582;52.196;20.952;2023-08-30T00:54:18;137.95;;;61.70;;
34317;SDS011;20582;52.196;20.952;2023-08-30T00:56:44;155.55;;;62.85;;
34317;SDS011;20582;52.196;20.952;2023-08-30T00:59:11;153.57;;;64.72;;
34317;SDS011;20582;52.196;20.952;2023-08-30T01:01:37;131.27;;;60.67;;
34317;SDS011;20582;52.196;20.952;2023-08-30T01:04:04;135.32;;;61.80;;
34317;SDS011;20582;52.196;20.952;2023-08-30T01:06:30;133.05;;;61.15;;
34317;SDS011;20582;52.196;20.952;2023-08-30T01:08:56;112.93;;;59.75;;
34317;SDS011;20582;52.196;20.952;2023-08-30T01:11:26;108.57;;;59.70;;
34317;SDS011;20582;52.196;20.952;2023-08-30T01:13:58;107.25;;;57.30;;
34317;SDS011;20582;52.196;20.952;2023-08-30T01:16:26;93.63;;;52.23;;
34317;SDS011;20582;52.196;20.952;2023-08-30T01:18:53;95.50;;;54.03;;
34317;SDS011;20582;52.196;20.952;2023-08-30T01:21:27;79.88;;;49.40;;
34317;SDS011;20582;52.196;20.952;2023-08-30T01:23:58;82.88;;;49.78;;
34317;SDS011;20582;52.196;20.952;2023-08-30T01:29:10;79.47;;;48.25;;
34317;SDS011;20582;52.196;20.952;2023-08-30T01:31:37;71.85;;;43.95;;
34317;SDS011;20582;52.196;20.952;2023-08-30T01:34:04;70.72;;;46.55;;
34317;SDS011;20582;52.196;20.952;2023-08-30T01:36:30;75.28;;;45.38;;
34317;SDS011;20582;52.196;20.952;2023-08-30T01:38:57;64.40;;;43.42;;
34317;SDS011;20582;52.196;20.952;2023-08-30T01:41:25;66.07;;;42.05;;
34317;SDS011;20582;52.196;20.952;2023-08-30T01:43:52;72.35;;;45.42;;
34317;SDS011;20582;52.196;20.952;2023-08-30T01:46:18;70.68;;;46.47;;
34317;SDS011;20582;52.196;20.952;2023-08-30T01:48:47;69.72;;;44.90;;
34317;SDS011;20582;52.196;20.952;2023-08-30T01:51:14;69.13;;;44.35;;
34317;SDS011;20582;52.196;20.952;2023-08-30T01:53:40;62.20;;;41.25;;
34317;SDS011;20582;52.196;20.952;2023-08-30T01:56:07;60.22;;;40.88;;
34317;SDS011;20582;52.196;20.952;2023-08-30T01:58:33;64.43;;;41.35;;
34317;SDS011;20582;52.196;20.952;2023-08-30T02:00:59;63.47;;;42.50;;
34317;SDS011;20582;52.196;20.952;2023-08-30T02:03:25;61.17;;;40.50;;
34317;SDS011;20582;52.196;20.952;2023-08-30T02:05:56;58.75;;;40.47;;
34317;SDS011;20582;52.196;20.952;2023-08-30T02:08:24;56.33;;;39.42;;
34317;SDS011;20582;52.196;20.952;2023-08-30T02:10:52;52.65;;;37.63;;
34317;SDS011;20582;52.196;20.952;2023-08-30T02:13:21;52.17;;;37.58;;
34317;SDS011;20582;52.196;20.952;2023-08-30T02:15:51;53.25;;;39.17;;
34317;SDS011;20582;52.196;20.952;2023-08-30T02:18:18;52.20;;;37.38;;
34317;SDS011;20582;52.196;20.952;2023-08-30T02:20:45;51.65;;;37.53;;
34317;SDS011;20582;52.196;20.952;2023-08-30T02:23:11;51.45;;;37.17;;
34317;SDS011;20582;52.196;20.952;2023-08-30T02:25:37;59.47;;;38.58;;
34317;SDS011;20582;52.196;20.952;2023-08-30T02:28:03;56.30;;;39.22;;
34317;SDS011;20582;52.196;20.952;2023-08-30T02:30:29;56.58;;;37.35;;
34317;SDS011;20582;52.196;20.952;2023-08-30T02:32:55;58.25;;;38.40;;
34317;SDS011;20582;52.196;20.952;2023-08-30T02:35:21;56.42;;;37.80;;
34317;SDS011;20582;52.196;20.952;2023-08-30T02:37:47;54.40;;;37.30;;
34317;SDS011;20582;52.196;20.952;2023-08-30T02:40:13;53.00;;;37.58;;
34317;SDS011;20582;52.196;20.952;2023-08-30T02:42:39;52.25;;;36.75;;
34317;SDS011;20582;52.196;20.952;2023-08-30T02:45:05;53.47;;;35.83;;
34317;SDS011;20582;52.196;20.952;2023-08-30T02:47:31;51.88;;;36.55;;
34317;SDS011;20582;52.196;20.952;2023-08-30T02:49:57;49.67;;;35.58;;
34317;SDS011;20582;52.196;20.952;2023-08-30T02:52:23;52.83;;;35.30;;
34317;SDS011;20582;52.196;20.952;2023-08-30T02:54:49;49.42;;;34.83;;
34317;SDS011;20582;52.196;20.952;2023-08-30T02:57:15;51.88;;;35.10;;
34317;SDS011;20582;52.196;20.952;2023-08-30T02:59:41;51.65;;;35.00;;
34317;SDS011;20582;52.196;20.952;2023-08-30T03:02:07;53.75;;;35.47;;
34317;SDS011;20582;52.196;20.952;2023-08-30T03:04:33;55.67;;;35.55;;
34317;SDS011;20582;52.196;20.952;2023-08-30T03:06:59;56.72;;;36.50;;
34317;SDS011;20582;52.196;20.952;2023-08-30T03:09:25;57.10;;;37.25;;
34317;SDS011;20582;52.196;20.952;2023-08-30T03:11:51;55.22;;;36.72;;
34317;SDS011;20582;52.196;20.952;2023-08-30T03:14:17;62.65;;;38.20;;
34317;SDS011;20582;52.196;20.952;2023-08-30T03:16:43;61.33;;;39.10;;
34317;SDS011;20582;52.196;20.952;2023-08-30T03:19:11;63.25;;;40.72;;
34317;SDS011;20582;52.196;20.952;2023-08-30T03:21:37;64.13;;;41.58;;
34317;SDS011;20582;52.196;20.952;2023-08-30T03:24:03;64.57;;;39.60;;
34317;SDS011;20582;52.196;20.952;2023-08-30T03:26:29;67.10;;;41.05;;
34317;SDS011;20582;52.196;20.952;2023-08-30T03:28:55;68.70;;;41.60;;
34317;SDS011;20582;52.196;20.952;2023-08-30T03:31:21;64.78;;;40.85;;
34317;SDS011;20582;52.196;20.952;2023-08-30T03:33:48;63.75;;;40.03;;
34317;SDS011;20582;52.196;20.952;2023-08-30T03:36:14;70.20;;;41.03;;
34317;SDS011;20582;52.196;20.952;2023-08-30T03:38:41;70.90;;;41.67;;
34317;SDS011;20582;52.196;20.952;2023-08-30T03:41:08;67.88;;;40.33;;
34317;SDS011;20582;52.196;20.952;2023-08-30T03:43:34;71.72;;;41.47;;
34317;SDS011;20582;52.196;20.952;2023-08-30T03:46:00;71.88;;;41.67;;
34317;SDS011;20582;52.196;20.952;2023-08-30T03:48:27;78.82;;;42.60;;
34317;SDS011;20582;52.196;20.952;2023-08-30T03:50:54;72.95;;;42.22;;
34317;SDS011;20582;52.196;20.952;2023-08-30T03:53:20;72.90;;;42.47;;
34317;SDS011;20582;52.196;20.952;2023-08-30T03:55:46;73.55;;;41.33;;
34317;SDS011;20582;52.196;20.952;2023-08-30T03:58:12;71.45;;;41.35;;
34317;SDS011;20582;52.196;20.952;2023-08-30T04:00:38;68.03;;;39.53;;
34317;SDS011;20582;52.196;20.952;2023-08-30T04:03:08;67.10;;;39.72;;
34317;SDS011;20582;52.196;20.952;2023-08-30T04:05:35;63.13;;;38.80;;
34317;SDS011;20582;52.196;20.952;2023-08-30T04:08:02;64.10;;;38.55;;
34317;SDS011;20582;52.196;20.952;2023-08-30T04:10:28;61.95;;;37.40;;
34317;SDS011;20582;52.196;20.952;2023-08-30T04:12:54;64.43;;;38.42;;
34317;SDS011;20582;52.196;20.952;2023-08-30T04:15:19;62.40;;;37.95;;
34317;SDS011;20582;52.196;20.952;2023-08-30T04:17:46;62.63;;;37.38;;
34317;SDS011;20582;52.196;20.952;2023-08-30T04:20:12;63.67;;;37.38;;
34317;SDS011;20582;52.196;20.952;2023-08-30T04:22:38;60.05;;;37.38;;
34317;SDS011;20582;52.196;20.952;2023-08-30T04:25:04;59.83;;;36.50;;
34317;SDS011;20582;52.196;20.952;2023-08-30T04:27:30;58.70;;;36.15;;
34317;SDS011;20582;52.196;20.952;2023-08-30T04:29:56;56.33;;;35.58;;
34317;SDS011;20582;52.196;20.952;2023-08-30T04:32:22;60.25;;;36.72;;
34317;SDS011;20582;52.196;20.952;2023-08-30T04:34:48;59.13;;;35.72;;
34317;SDS011;20582;52.196;20.952;2023-08-30T04:37:14;56.58;;;35.72;;
34317;SDS011;20582;52.196;20.952;2023-08-30T04:39:40;61.10;;;36.67;;
34317;SDS011;20582;52.196;20.952;2023-08-30T04:42:06;51.53;;;33.60;;
34317;SDS011;20582;52.196;20.952;2023-08-30T04:44:32;52.40;;;34.70;;
34317;SDS011;20582;52.196;20.952;2023-08-30T04:46:58;54.55;;;34.03;;
34317;SDS011;20582;52.196;20.952;2023-08-30T04:49:24;51.22;;;33.47;;
34317;SDS011;20582;52.196;20.952;2023-08-30T04:51:50;48.78;;;32.60;;
34317;SDS011;20582;52.196;20.952;2023-08-30T04:54:16;50.38;;;34.20;;
34317;SDS011;20582;52.196;20.952;2023-08-30T04:56:42;52.72;;;34.53;;
34317;SDS011;20582;52.196;20.952;2023-08-30T04:59:08;50.90;;;33.10;;
34317;SDS011;20582;52.196;20.952;2023-08-30T05:01:34;49.15;;;32.63;;
34317;SDS011;20582;52.196;20.952;2023-08-30T05:04:00;51.55;;;32.40;;
34317;SDS011;20582;52.196;20.952;2023-08-30T05:06:26;48.28;;;32.22;;
34317;SDS011;20582;52.196;20.952;2023-08-30T05:08:52;46.28;;;31.27;;
34317;SDS011;20582;52.196;20.952;2023-08-30T05:11:18;43.83;;;30.10;;
34317;SDS011;20582;52.196;20.952;2023-08-30T05:13:44;44.53;;;30.50;;
34317;SDS011;20582;52.196;20.952;2023-08-30T05:16:10;46.05;;;30.73;;
34317;SDS011;20582;52.196;20.952;2023-08-30T05:18:36;46.83;;;29.92;;
34317;SDS011;20582;52.196;20.952;2023-08-30T05:21:02;44.03;;;28.73;;
34317;SDS011;20582;52.196;20.952;2023-08-30T05:23:28;43.20;;;30.02;;
34317;SDS011;20582;52.196;20.952;2023-08-30T05:25:54;43.15;;;29.60;;
34317;SDS011;20582;52.196;20.952;2023-08-30T05:28:20;43.78;;;28.17;;
34317;SDS011;20582;52.196;20.952;2023-08-30T05:30:46;42.03;;;27.23;;
34317;SDS011;20582;52.196;20.952;2023-08-30T05:33:12;43.28;;;28.38;;
34317;SDS011;20582;52.196;20.952;2023-08-30T05:35:38;40.40;;;27.95;;
34317;SDS011;20582;52.196;20.952;2023-08-30T05:38:04;39.38;;;27.50;;
34317;SDS011;20582;52.196;20.952;2023-08-30T05:40:30;35.22;;;25.08;;
34317;SDS011;20582;52.196;20.952;2023-08-30T05:42:56;36.05;;;25.27;;
34317;SDS011;20582;52.196;20.952;2023-08-30T05:45:22;36.25;;;25.23;;
34317;SDS011;20582;52.196;20.952;2023-08-30T05:47:48;36.00;;;24.42;;
34317;SDS011;20582;52.196;20.952;2023-08-30T05:50:14;36.15;;;25.08;;
34317;SDS011;20582;52.196;20.952;2023-08-30T05:52:40;34.03;;;23.90;;
34317;SDS011;20582;52.196;20.952;2023-08-30T05:55:09;33.88;;;23.35;;
34317;SDS011;20582;52.196;20.952;2023-08-30T05:57:35;35.40;;;23.50;;
34317;SDS011;20582;52.196;20.952;2023-08-30T06:00:01;35.03;;;23.73;;
34317;SDS011;20582;52.196;20.952;2023-08-30T06:02:29;34.42;;;23.23;;
34317;SDS011;20582;52.196;20.952;2023-08-30T06:04:55;32.83;;;23.17;;
34317;SDS011;20582;52.196;20.952;2023-08-30T06:07:21;33.10;;;22.33;;
34317;SDS011;20582;52.196;20.952;2023-08-30T06:09:47;32.72;;;22.50;;
34317;SDS011;20582;52.196;20.952;2023-08-30T06:12:14;34.03;;;22.40;;
34317;SDS011;20582;52.196;20.952;2023-08-30T06:14:40;31.80;;;22.73;;
34317;SDS011;20582;52.196;20.952;2023-08-30T06:17:06;33.78;;;23.08;;
34317;SDS011;20582;52.196;20.952;2023-08-30T06:19:32;36.83;;;23.65;;
34317;SDS011;20582;52.196;20.952;2023-08-30T06:21:58;34.13;;;24.05;;
34317;SDS011;20582;52.196;20.952;2023-08-30T06:24:24;41.35;;;28.35;;
34317;SDS011;20582;52.196;20.952;2023-08-30T06:26:50;37.42;;;24.85;;
34317;SDS011;20582;52.196;20.952;2023-08-30T06:29:16;39.83;;;26.27;;
34317;SDS011;20582;52.196;20.952;2023-08-30T06:31:42;38.33;;;25.67;;
34317;SDS011;20582;52.196;20.952;2023-08-30T06:34:10;34.80;;;24.52;;
34317;SDS011;20582;52.196;20.952;2023-08-30T06:36:36;37.03;;;25.40;;
34317;SDS011;20582;52.196;20.952;2023-08-30T06:39:02;34.83;;;25.13;;
34317;SDS011;20582;52.196;20.952;2023-08-30T06:41:28;39.08;;;25.83;;
34317;SDS011;20582;52.196;20.952;2023-08-30T06:43:54;35.28;;;24.67;;
34317;SDS011;20582;52.196;20.952;2023-08-30T06:46:20;39.80;;;24.50;;
34317;SDS011;20582;52.196;20.952;2023-08-30T06:48:46;37.78;;;26.08;;
34317;SDS011;20582;52.196;20.952;2023-08-30T06:51:12;36.58;;;25.38;;
34317;SDS011;20582;52.196;20.952;2023-08-30T06:53:37;35.88;;;25.20;;
34317;SDS011;20582;52.196;20.952;2023-08-30T06:56:03;38.88;;;25.90;;
34317;SDS011;20582;52.196;20.952;2023-08-30T06:58:29;38.53;;;25.58;;
34317;SDS011;20582;52.196;20.952;2023-08-30T07:00:56;40.78;;;27.58;;
34317;SDS011;20582;52.196;20.952;2023-08-30T07:03:22;36.42;;;26.38;;
34317;SDS011;20582;52.196;20.952;2023-08-30T07:05:50;40.63;;;25.60;;
34317;SDS011;20582;52.196;20.952;2023-08-30T07:08:16;35.90;;;24.25;;
34317;SDS011;20582;52.196;20.952;2023-08-30T07:10:42;35.78;;;23.45;;
34317;SDS011;20582;52.196;20.952;2023-08-30T07:13:08;35.50;;;23.88;;
34317;SDS011;20582;52.196;20.952;2023-08-30T07:15:38;36.08;;;23.65;;
34317;SDS011;20582;52.196;20.952;2023-08-30T07:18:04;37.05;;;25.20;;
34317;SDS011;20582;52.196;20.952;2023-08-30T07:20:31;36.55;;;24.13;;
34317;SDS011;20582;52.196;20.952;2023-08-30T07:22:57;35.28;;;24.75;;
34317;SDS011;20582;52.196;20.952;2023-08-30T07:25:23;36.67;;;25.50;;
34317;SDS011;20582;52.196;20.952;2023-08-30T07:27:49;38.08;;;27.42;;
34317;SDS011;20582;52.196;20.952;2023-08-30T07:30:16;42.45;;;28.67;;
34317;SDS011;20582;52.196;20.952;2023-08-30T07:32:42;46.45;;;29.98;;
34317;SDS011;20582;52.196;20.952;2023-08-30T07:35:08;50.85;;;32.15;;
34317;SDS011;20582;52.196;20.952;2023-08-30T07:37:34;61.63;;;37.17;;
34317;SDS011;20582;52.196;20.952;2023-08-30T07:40:00;61.30;;;37.33;;
34317;SDS011;20582;52.196;20.952;2023-08-30T07:42:26;60.38;;;38.28;;
34317;SDS011;20582;52.196;20.952;2023-08-30T07:44:52;66.53;;;38.60;;
34317;SDS011;20582;52.196;20.952;2023-08-30T07:47:18;72.00;;;39.80;;
34317;SDS011;20582;52.196;20.952;2023-08-30T07:49:44;70.97;;;40.65;;
34317;SDS011;20582;52.196;20.952;2023-08-30T07:52:10;77.30;;;40.65;;
34317;SDS011;20582;52.196;20.952;2023-08-30T07:54:37;90.93;;;42.75;;
34317;SDS011;20582;52.196;20.952;2023-08-30T07:57:04;114.85;;;44.45;;
34317;SDS011;20582;52.196;20.952;2023-08-30T07:59:32;121.72;;;45.70;;
34317;SDS011;20582;52.196;20.952;2023-08-30T08:01:58;144.65;;;46.28;;
34317;SDS011;20582;52.196;20.952;2023-08-30T08:04:24;145.52;;;47.15;;
34317;SDS011;20582;52.196;20.952;2023-08-30T08:06:50;137.50;;;47.67;;
34317;SDS011;20582;52.196;20.952;2023-08-30T08:09:16;160.70;;;48.15;;
34317;SDS011;20582;52.196;20.952;2023-08-30T08:11:42;149.57;;;46.88;;
34317;SDS011;20582;52.196;20.952;2023-08-30T08:14:11;111.72;;;40.75;;
34317;SDS011;20582;52.196;20.952;2023-08-30T08:16:38;130.07;;;42.75;;
34317;SDS011;20582;52.196;20.952;2023-08-30T08:19:04;106.10;;;40.50;;
34317;SDS011;20582;52.196;20.952;2023-08-30T08:21:31;134.35;;;42.22;;
34317;SDS011;20582;52.196;20.952;2023-08-30T08:23:57;138.77;;;42.15;;
34317;SDS011;20582;52.196;20.952;2023-08-30T08:26:23;126.38;;;40.90;;
34317;SDS011;20582;52.196;20.952;2023-08-30T08:28:49;152.18;;;41.08;;
34317;SDS011;20582;52.196;20.952;2023-08-30T08:31:15;120.70;;;36.88;;
34317;SDS011;20582;52.196;20.952;2023-08-30T08:33:40;119.68;;;34.22;;
34317;SDS011;20582;52.196;20.952;2023-08-30T08:36:06;82.40;;;32.88;;
34317;SDS011;20582;52.196;20.952;2023-08-30T08:38:32;102.47;;;33.45;;
34317;SDS011;20582;52.196;20.952;2023-08-30T08:41:02;83.25;;;30.75;;
34317;SDS011;20582;52.196;20.952;2023-08-30T08:43:29;115.38;;;32.30;;
34317;SDS011;20582;52.196;20.952;2023-08-30T08:46:00;91.15;;;31.25;;
34317;SDS011;20582;52.196;20.952;2023-08-30T08:48:27;85.93;;;30.90;;
34317;SDS011;20582;52.196;20.952;2023-08-30T08:50:54;93.10;;;29.50;;
34317;SDS011;20582;52.196;20.952;2023-08-30T08:53:20;79.65;;;27.38;;
34317;SDS011;20582;52.196;20.952;2023-08-30T08:55:46;74.20;;;27.73;;
34317;SDS011;20582;52.196;20.952;2023-08-30T08:58:12;60.17;;;26.02;;
34317;SDS011;20582;52.196;20.952;2023-08-30T09:00:40;71.93;;;25.42;;
34317;SDS011;20582;52.196;20.952;2023-08-30T09:03:06;51.65;;;23.85;;
34317;SDS011;20582;52.196;20.952;2023-08-30T09:05:32;86.90;;;26.95;;
34317;SDS011;20582;52.196;20.952;2023-08-30T09:07:58;70.88;;;26.45;;
34317;SDS011;20582;52.196;20.952;2023-08-30T09:10:26;68.38;;;25.60;;
34317;SDS011;20582;52.196;20.952;2023-08-30T09:12:52;54.90;;;23.27;;
34317;SDS011;20582;52.196;20.952;2023-08-30T09:15:18;74.25;;;24.75;;
34317;SDS011;20582;52.196;20.952;2023-08-30T09:17:44;76.55;;;23.92;;
34317;SDS011;20582;52.196;20.952;2023-08-30T09:20:12;59.15;;;23.13;;
34317;SDS011;20582;52.196;20.952;2023-08-30T09:22:39;76.40;;;25.58;;
34317;SDS011;20582;52.196;20.952;2023-08-30T09:25:09;72.28;;;25.65;;
34317;SDS011;20582;52.196;20.952;2023-08-30T09:27:35;61.05;;;23.20;;
34317;SDS011;20582;52.196;20.952;2023-08-30T09:30:07;45.90;;;18.85;;
34317;SDS011;20582;52.196;20.952;2023-08-30T09:32:41;36.90;;;17.50;;
34317;SDS011;20582;52.196;20.952;2023-08-30T09:35:08;42.95;;;17.88;;
34317;SDS011;20582;52.196;20.952;2023-08-30T09:37:34;47.42;;;17.75;;
34317;SDS011;20582;52.196;20.952;2023-08-30T09:40:00;31.23;;;16.33;;
34317;SDS011;20582;52.196;20.952;2023-08-30T09:42:26;32.60;;;16.58;;
34317;SDS011;20582;52.196;20.952;2023-08-30T09:44:52;46.35;;;19.92;;
34317;SDS011;20582;52.196;20.952;2023-08-30T09:47:19;50.60;;;19.55;;
34317;SDS011;20582;52.196;20.952;2023-08-30T09:49:45;51.88;;;20.75;;
34317;SDS011;20582;52.196;20.952;2023-08-30T09:52:14;43.92;;;19.35;;
34317;SDS011;20582;52.196;20.952;2023-08-30T09:54:42;46.00;;;19.67;;
34317;SDS011;20582;52.196;20.952;2023-08-30T09:57:09;54.38;;;20.33;;
34317;SDS011;20582;52.196;20.952;2023-08-30T09:59:35;52.40;;;20.35;;
34317;SDS011;20582;52.196;20.952;2023-08-30T10:02:02;77.63;;;23.90;;
34317;SDS011;20582;52.196;20.952;2023-08-30T10:04:29;58.00;;;22.52;;
34317;SDS011;20582;52.196;20.952;2023-08-30T10:06:56;57.40;;;24.00;;
34317;SDS011;20582;52.196;20.952;2023-08-30T10:09:23;72.93;;;24.98;;
34317;SDS011;20582;52.196;20.952;2023-08-30T10:11:49;108.93;;;28.48;;
34317;SDS011;20582;52.196;20.952;2023-08-30T10:14:16;83.10;;;27.42;;
34317;SDS011;20582;52.196;20.952;2023-08-30T10:19:29;60.60;;;26.20;;
34317;SDS011;20582;52.196;20.952;2023-08-30T10:22:01;77.03;;;27.67;;
34317;SDS011;20582;52.196;20.952;2023-08-30T10:24:41;68.47;;;26.98;;
34317;SDS011;20582;52.196;20.952;2023-08-30T10:27:08;87.63;;;28.63;;
34317;SDS011;20582;52.196;20.952;2023-08-30T10:29:34;59.83;;;26.67;;
34317;SDS011;20582;52.196;20.952;2023-08-30T10:32:04;60.92;;;26.38;;
34317;SDS011;20582;52.196;20.952;2023-08-30T10:34:34;58.90;;;25.65;;
34317;SDS011;20582;52.196;20.952;2023-08-30T10:37:01;47.13;;;24.07;;
34317;SDS011;20582;52.196;20.952;2023-08-30T10:39:38;77.13;;;27.08;;
34317;SDS011;20582;52.196;20.952;2023-08-30T10:42:16;57.72;;;26.08;;
34317;SDS011;20582;52.196;20.952;2023-08-30T10:45:05;47.92;;;23.55;;
34317;SDS011;20582;52.196;20.952;2023-08-30T10:47:32;61.40;;;25.02;;
34317;SDS011;20582;52.196;20.952;2023-08-30T10:50:05;59.75;;;23.98;;
34317;SDS011;20582;52.196;20.952;2023-08-30T10:52:31;60.05;;;25.80;;
34317;SDS011;20582;52.196;20.952;2023-08-30T10:55:14;42.45;;;20.60;;
34317;SDS011;20582;52.196;20.952;2023-08-30T10:57:45;51.97;;;21.95;;
34317;SDS011;20582;52.196;20.952;2023-08-30T11:02:38;30.85;;;17.10;;
34317;SDS011;20582;52.196;20.952;2023-08-30T11:05:08;36.85;;;17.23;;
34317;SDS011;20582;52.196;20.952;2023-08-30T11:07:34;26.08;;;15.60;;
34317;SDS011;20582;52.196;20.952;2023-08-30T11:10:01;28.67;;;15.93;;
34317;SDS011;20582;52.196;20.952;2023-08-30T11:12:29;25.45;;;14.68;;
34317;SDS011;20582;52.196;20.952;2023-08-30T11:14:55;36.20;;;16.52;;
34317;SDS011;20582;52.196;20.952;2023-08-30T11:17:22;35.15;;;17.30;;
34317;SDS011;20582;52.196;20.952;2023-08-30T11:19:51;39.15;;;19.42;;
34317;SDS011;20582;52.196;20.952;2023-08-30T11:22:17;38.15;;;18.63;;
34317;SDS011;20582;52.196;20.952;2023-08-30T11:24:43;42.78;;;16.88;;
34317;SDS011;20582;52.196;20.952;2023-08-30T11:27:09;33.17;;;16.20;;
34317;SDS011;20582;52.196;20.952;2023-08-30T11:29:35;31.33;;;16.00;;
34317;SDS011;20582;52.196;20.952;2023-08-30T11:32:01;31.00;;;15.00;;
34317;SDS011;20582;52.196;20.952;2023-08-30T11:34:27;33.80;;;15.95;;
34317;SDS011;20582;52.196;20.952;2023-08-30T11:36:53;34.97;;;17.20;;
34317;SDS011;20582;52.196;20.952;2023-08-30T11:39:19;42.25;;;18.73;;
34317;SDS011;20582;52.196;20.952;2023-08-30T11:41:47;37.70;;;18.25;;
34317;SDS011;20582;52.196;20.952;2023-08-30T11:44:13;27.98;;;15.07;;
34317;SDS011;20582;52.196;20.952;2023-08-30T11:46:41;33.25;;;15.60;;
34317;SDS011;20582;52.196;20.952;2023-08-30T11:49:07;34.13;;;17.70;;
34317;SDS011;20582;52.196;20.952;2023-08-30T11:51:33;28.00;;;15.57;;
34317;SDS011;20582;52.196;20.952;2023-08-30T11:53:59;31.75;;;16.52;;
34317;SDS011;20582;52.196;20.952;2023-08-30T11:56:28;47.00;;;18.23;;
34317;SDS011;20582;52.196;20.952;2023-08-30T11:58:54;32.78;;;16.33;;
34317;SDS011;20582;52.196;20.952;2023-08-30T12:01:20;31.50;;;14.93;;
34317;SDS011;20582;52.196;20.952;2023-08-30T12:03:46;31.55;;;15.65;;
34317;SDS011;20582;52.196;20.952;2023-08-30T12:06:15;31.55;;;14.77;;
34317;SDS011;20582;52.196;20.952;2023-08-30T12:08:41;29.38;;;15.15;;
34317;SDS011;20582;52.196;20.952;2023-08-30T12:11:17;32.70;;;15.60;;
34317;SDS011;20582;52.196;20.952;2023-08-30T12:13:43;32.70;;;15.45;;
34317;SDS011;20582;52.196;20.952;2023-08-30T12:16:09;29.63;;;15.48;;
34317;SDS011;20582;52.196;20.952;2023-08-30T12:21:07;34.13;;;17.20;;
34317;SDS011;20582;52.196;20.952;2023-08-30T12:23:33;45.30;;;18.63;;
34317;SDS011;20582;52.196;20.952;2023-08-30T12:28:25;40.55;;;18.13;;
34317;SDS011;20582;52.196;20.952;2023-08-30T12:30:52;42.08;;;18.85;;
34317;SDS011;20582;52.196;20.952;2023-08-30T12:33:18;43.03;;;20.38;;
34317;SDS011;20582;52.196;20.952;2023-08-30T12:35:44;49.75;;;21.50;;
34317;SDS011;20582;52.196;20.952;2023-08-30T12:38:10;46.13;;;20.40;;
34317;SDS011;20582;52.196;20.952;2023-08-30T12:40:54;64.15;;;22.77;;
34317;SDS011;20582;52.196;20.952;2023-08-30T12:43:20;48.70;;;22.13;;
34317;SDS011;20582;52.196;20.952;2023-08-30T12:45:47;50.92;;;23.45;;
34317;SDS011;20582;52.196;20.952;2023-08-30T12:48:14;40.85;;;21.70;;
34317;SDS011;20582;52.196;20.952;2023-08-30T12:50:43;46.15;;;23.38;;
34317;SDS011;20582;52.196;20.952;2023-08-30T12:53:10;43.92;;;23.80;;
34317;SDS011;20582;52.196;20.952;2023-08-30T12:55:36;45.75;;;22.77;;
34317;SDS011;20582;52.196;20.952;2023-08-30T12:58:06;37.95;;;18.95;;
34317;SDS011;20582;52.196;20.952;2023-08-30T13:00:32;57.50;;;23.90;;
34317;SDS011;20582;52.196;20.952;2023-08-30T13:02:58;45.05;;;21.63;;
34317;SDS011;20582;52.196;20.952;2023-08-30T13:05:24;36.67;;;19.13;;
34317;SDS011;20582;52.196;20.952;2023-08-30T13:07:50;56.75;;;20.50;;
34317;SDS011;20582;52.196;20.952;2023-08-30T13:10:16;32.17;;;18.15;;
34317;SDS011;20582;52.196;20.952;2023-08-30T13:12:43;36.80;;;18.80;;
34317;SDS011;20582;52.196;20.952;2023-08-30T13:15:09;33.28;;;18.15;;
34317;SDS011;20582;52.196;20.952;2023-08-30T13:17:35;34.78;;;17.38;;
34317;SDS011;20582;52.196;20.952;2023-08-30T13:20:01;27.23;;;14.77;;
34317;SDS011;20582;52.196;20.952;2023-08-30T13:22:28;34.20;;;16.20;;
34317;SDS011;20582;52.196;20.952;2023-08-30T13:24:54;34.40;;;16.83;;
34317;SDS011;20582;52.196;20.952;2023-08-30T13:27:20;33.92;;;17.67;;
34317;SDS011;20582;52.196;20.952;2023-08-30T13:29:46;28.30;;;16.10;;
34317;SDS011;20582;52.196;20.952;2023-08-30T13:32:12;30.70;;;16.20;;
34317;SDS011;20582;52.196;20.952;2023-08-30T13:34:38;29.83;;;15.43;;
34317;SDS011;20582;52.196;20.952;2023-08-30T13:37:05;44.40;;;25.73;;
34317;SDS011;20582;52.196;20.952;2023-08-30T13:39:31;27.02;;;16.27;;
34317;SDS011;20582;52.196;20.952;2023-08-30T13:41:57;39.42;;;17.58;;
34317;SDS011;20582;52.196;20.952;2023-08-30T13:44:23;33.45;;;16.27;;
34317;SDS011;20582;52.196;20.952;2023-08-30T13:46:49;30.02;;;15.73;;
34317;SDS011;20582;52.196;20.952;2023-08-30T13:49:16;32.75;;;16.95;;
34317;SDS011;20582;52.196;20.952;2023-08-30T13:51:43;30.88;;;16.10;;
34317;SDS011;20582;52.196;20.952;2023-08-30T13:54:10;30.50;;;16.33;;
34317;SDS011;20582;52.196;20.952;2023-08-30T13:56:36;32.38;;;16.92;;
34317;SDS011;20582;52.196;20.952;2023-08-30T13:59:06;28.38;;;16.42;;
34317;SDS011;20582;52.196;20.952;2023-08-30T14:01:32;21.88;;;13.93;;
34317;SDS011;20582;52.196;20.952;2023-08-30T14:04:00;19.10;;;11.88;;
34317;SDS011;20582;52.196;20.952;2023-08-30T14:06:26;15.75;;;10.60;;
34317;SDS011;20582;52.196;20.952;2023-08-30T14:08:52;15.80;;;10.77;;
34317;SDS011;20582;52.196;20.952;2023-08-30T14:11:18;17.35;;;10.90;;
34317;SDS011;20582;52.196;20.952;2023-08-30T14:13:44;15.85;;;10.43;;
34317;SDS011;20582;52.196;20.952;2023-08-30T14:16:10;14.27;;;10.23;;